sensor_id;sensor_type;location;lat;lon;timestamp;pressure;altitude;pressure_sealevel;temperature;humidity
53619;BME280;39505;53.040;18.488;2023-01-31T00:00:04;100089.13;;;4.07;100.00
53619;BME280;39505;53.040;18.488;2023-01-31T00:00:23;100098.03;;;4.06;100.00
53619;BME280;39505;53.040;18.488;2023-01-31T00:00:56;100097.94;;;4.08;100.00
53619;BME280;39505;53.040;18.488;2023-01-31T00:01:12;100101.50;;;4.07;100.00
53619;BME280;39505;53.040;18.488;2023-01-31T00:01:28;100097.94;;;4.08;100.00
53619;BME280;39505;53.040;18.488;2023-01-31T00:01:41;100097.09;;;4.07;100.00
53619;BME280;39505;53.040;18.488;2023-01-31T00:01:53;100096.22;;;4.07;100.00
53619;BME280;39505;53.040;18.488;2023-01-31T00:02:06;100095.50;;;4.05;100.00
53619;BME280;39505;53.040;18.488;2023-01-31T00:02:19;100097.19;;;4.06;100.00
53619;BME280;39505;53.040;18.488;2023-01-31T00:02:31;100106.81;;;4.07;100.00
53619;BME280;39505;53.040;18.488;2023-01-31T00:02:44;100098.88;;;4.07;100.00
53619;BME280;39505;53.040;18.488;2023-01-31T00:02:57;100096.22;;;4.07;100.00
53619;BME280;39505;53.040;18.488;2023-01-31T00:03:10;100097.09;;;4.07;100.00
53619;BME280;39505;53.040;18.488;2023-01-31T00:03:23;100095.28;;;4.08;100.00
53619;BME280;39505;53.040;18.488;2023-01-31T00:03:36;100097.09;;;4.07;100.00
53619;BME280;39505;53.040;18.488;2023-01-31T00:03:51;100102.38;;;4.07;100.00
53619;BME280;39505;53.040;18.488;2023-01-31T00:04:06;100096.22;;;4.07;100.00
53619;BME280;39505;53.040;18.488;2023-01-31T00:04:20;100094.53;;;4.06;100.00
53619;BME280;39505;53.040;18.488;2023-01-31T00:04:33;100105.88;;;4.08;100.00
53619;BME280;39505;53.040;18.488;2023-01-31T00:04:46;100103.22;;;4.08;100.00
53619;BME280;39505;53.040;18.488;2023-01-31T00:04:58;100096.22;;;4.07;100.00
53619;BME280;39505;53.040;18.488;2023-01-31T00:05:11;100103.22;;;4.08;100.00
53619;BME280;39505;53.040;18.488;2023-01-31T00:05:25;100101.66;;;4.05;100.00
53619;BME280;39505;53.040;18.488;2023-01-31T00:05:37;100099.84;;;4.06;100.00
53619;BME280;39505;53.040;18.488;2023-01-31T00:05:51;100113.75;;;4.09;100.00
53619;BME280;39505;53.040;18.488;2023-01-31T00:06:15;100110.22;;;4.09;100.00
53619;BME280;39505;53.040;18.488;2023-01-31T00:06:31;100104.91;;;4.09;100.00
53619;BME280;39505;53.040;18.488;2023-01-31T00:06:44;100110.22;;;4.09;100.00
53619;BME280;39505;53.040;18.488;2023-01-31T00:07:02;100104.91;;;4.09;100.00
53619;BME280;39505;53.040;18.488;2023-01-31T00:07:15;100111.94;;;4.10;100.00
53619;BME280;39505;53.040;18.488;2023-01-31T00:07:29;100106.72;;;4.08;100.00
53619;BME280;39505;53.040;18.488;2023-01-31T00:07:41;100107.56;;;4.09;100.00
53619;BME280;39505;53.040;18.488;2023-01-31T00:07:54;100104.91;;;4.09;100.00
53619;BME280;39505;53.040;18.488;2023-01-31T00:08:06;100110.22;;;4.09;100.00
53619;BME280;39505;53.040;18.488;2023-01-31T00:08:19;100104.06;;;4.08;100.00
53619;BME280;39505;53.040;18.488;2023-01-31T00:08:33;100105.78;;;4.09;100.00
53619;BME280;39505;53.040;18.488;2023-01-31T00:08:47;100100.69;;;4.06;100.00
53619;BME280;39505;53.040;18.488;2023-01-31T00:09:00;100107.56;;;4.09;100.00
53619;BME280;39505;53.040;18.488;2023-01-31T00:09:13;100102.25;;;4.09;100.00
53619;BME280;39505;53.040;18.488;2023-01-31T00:09:26;100107.47;;;4.11;100.00
53619;BME280;39505;53.040;18.488;2023-01-31T00:09:39;100109.28;;;4.10;100.00
53619;BME280;39505;53.040;18.488;2023-01-31T00:09:52;100111.94;;;4.10;100.00
53619;BME280;39505;53.040;18.488;2023-01-31T00:10:05;100107.47;;;4.11;100.00
53619;BME280;39505;53.040;18.488;2023-01-31T00:10:18;100106.63;;;4.10;100.00
53619;BME280;39505;53.040;18.488;2023-01-31T00:10:31;100110.97;;;4.11;100.00
53619;BME280;39505;53.040;18.488;2023-01-31T00:10:43;100111.94;;;4.10;100.00
53619;BME280;39505;53.040;18.488;2023-01-31T00:10:57;100104.91;;;4.09;100.00
53619;BME280;39505;53.040;18.488;2023-01-31T00:11:10;100105.78;;;4.09;100.00
53619;BME280;39505;53.040;18.488;2023-01-31T00:11:26;100112.78;;;4.11;100.00
53619;BME280;39505;53.040;18.488;2023-01-31T00:11:39;100110.13;;;4.11;100.00
53619;BME280;39505;53.040;18.488;2023-01-31T00:11:52;100119.78;;;4.12;100.00
53619;BME280;39505;53.040;18.488;2023-01-31T00:12:04;100115.31;;;4.12;100.00
53619;BME280;39505;53.040;18.488;2023-01-31T00:12:17;100110.97;;;4.11;100.00
53619;BME280;39505;53.040;18.488;2023-01-31T00:12:30;100116.16;;;4.13;100.00
53619;BME280;39505;53.040;18.488;2023-01-31T00:12:43;100108.31;;;4.11;100.00
53619;BME280;39505;53.040;18.488;2023-01-31T00:12:56;100116.25;;;4.11;100.00
53619;BME280;39505;53.040;18.488;2023-01-31T00:13:09;100110.03;;;4.12;100.00
53619;BME280;39505;53.040;18.488;2023-01-31T00:13:21;100115.31;;;4.12;100.00
53619;BME280;39505;53.040;18.488;2023-01-31T00:13:34;100112.69;;;4.12;100.00
53619;BME280;39505;53.040;18.488;2023-01-31T00:13:47;100115.31;;;4.12;100.00
53619;BME280;39505;53.040;18.488;2023-01-31T00:14:02;100116.25;;;4.11;100.00
53619;BME280;39505;53.040;18.488;2023-01-31T00:14:20;100113.50;;;4.13;100.00
53619;BME280;39505;53.040;18.488;2023-01-31T00:14:32;100114.50;;;4.12;100.00
53619;BME280;39505;53.040;18.488;2023-01-31T00:14:46;100109.19;;;4.12;100.00
53619;BME280;39505;53.040;18.488;2023-01-31T00:14:58;100113.63;;;4.11;100.00
53619;BME280;39505;53.040;18.488;2023-01-31T00:15:11;100115.31;;;4.12;100.00
53619;BME280;39505;53.040;18.488;2023-01-31T00:15:27;100118.91;;;4.11;100.00
53619;BME280;39505;53.040;18.488;2023-01-31T00:15:41;100121.56;;;4.11;100.00
53619;BME280;39505;53.040;18.488;2023-01-31T00:15:54;100120.63;;;4.12;100.00
53619;BME280;39505;53.040;18.488;2023-01-31T00:16:08;100120.63;;;4.12;100.00
53619;BME280;39505;53.040;18.488;2023-01-31T00:16:22;100119.66;;;4.13;100.00
53619;BME280;39505;53.040;18.488;2023-01-31T00:16:34;100117.97;;;4.12;100.00
53619;BME280;39505;53.040;18.488;2023-01-31T00:16:47;100109.19;;;4.12;100.00
53619;BME280;39505;53.040;18.488;2023-01-31T00:17:01;100116.16;;;4.13;100.00
53619;BME280;39505;53.040;18.488;2023-01-31T00:17:13;100117.00;;;4.13;100.00
53619;BME280;39505;53.040;18.488;2023-01-31T00:17:26;100117.13;;;4.12;100.00
53619;BME280;39505;53.040;18.488;2023-01-31T00:17:38;100119.78;;;4.12;100.00
53619;BME280;39505;53.040;18.488;2023-01-31T00:17:51;100119.88;;;4.10;100.00
53619;BME280;39505;53.040;18.488;2023-01-31T00:18:04;100124.22;;;4.11;100.00
53619;BME280;39505;53.040;18.488;2023-01-31T00:18:17;100124.22;;;4.11;100.00
53619;BME280;39505;53.040;18.488;2023-01-31T00:18:30;100125.09;;;4.12;100.00
53619;BME280;39505;53.040;18.488;2023-01-31T00:18:43;100124.22;;;4.11;100.00
53619;BME280;39505;53.040;18.488;2023-01-31T00:18:56;100124.22;;;4.11;100.00
53619;BME280;39505;53.040;18.488;2023-01-31T00:19:09;100131.34;;;4.11;100.00
53619;BME280;39505;53.040;18.488;2023-01-31T00:19:21;100123.38;;;4.11;100.00
53619;BME280;39505;53.040;18.488;2023-01-31T00:19:34;100126.88;;;4.11;100.00
53619;BME280;39505;53.040;18.488;2023-01-31T00:19:47;100128.69;;;4.11;100.00
53619;BME280;39505;53.040;18.488;2023-01-31T00:20:01;100124.34;;;4.09;100.00
53619;BME280;39505;53.040;18.488;2023-01-31T00:20:14;100124.22;;;4.11;100.00
53619;BME280;39505;53.040;18.488;2023-01-31T00:20:26;100124.22;;;4.11;100.00
53619;BME280;39505;53.040;18.488;2023-01-31T00:20:39;100124.13;;;4.13;100.00
53619;BME280;39505;53.040;18.488;2023-01-31T00:20:52;100125.94;;;4.12;100.00
53619;BME280;39505;53.040;18.488;2023-01-31T00:21:06;100118.91;;;4.11;100.00
53619;BME280;39505;53.040;18.488;2023-01-31T00:21:22;100129.53;;;4.11;100.00
53619;BME280;39505;53.040;18.488;2023-01-31T00:21:36;100129.53;;;4.11;100.00
53619;BME280;39505;53.040;18.488;2023-01-31T00:21:49;100129.53;;;4.11;100.00
53619;BME280;39505;53.040;18.488;2023-01-31T00:22:02;100133.06;;;4.12;100.00
53619;BME280;39505;53.040;18.488;2023-01-31T00:22:14;100127.84;;;4.10;100.00
53619;BME280;39505;53.040;18.488;2023-01-31T00:22:28;100135.72;;;4.12;100.00
53619;BME280;39505;53.040;18.488;2023-01-31T00:22:41;100129.53;;;4.11;100.00
53619;BME280;39505;53.040;18.488;2023-01-31T00:22:54;100133.91;;;4.12;100.00
53619;BME280;39505;53.040;18.488;2023-01-31T00:23:07;100131.25;;;4.12;100.00
53619;BME280;39505;53.040;18.488;2023-01-31T00:23:20;100119.78;;;4.12;100.00
53619;BME280;39505;53.040;18.488;2023-01-31T00:23:32;100129.53;;;4.11;100.00
53619;BME280;39505;53.040;18.488;2023-01-31T00:23:47;100128.50;;;4.14;100.00
53619;BME280;39505;53.040;18.488;2023-01-31T00:24:00;100119.78;;;4.12;100.00
53619;BME280;39505;53.040;18.488;2023-01-31T00:24:13;100119.78;;;4.12;100.00
53619;BME280;39505;53.040;18.488;2023-01-31T00:24:27;100126.88;;;4.11;100.00
53619;BME280;39505;53.040;18.488;2023-01-31T00:24:40;100126.88;;;4.11;100.00
53619;BME280;39505;53.040;18.488;2023-01-31T00:24:52;100127.75;;;4.12;100.00
53619;BME280;39505;53.040;18.488;2023-01-31T00:25:06;100126.88;;;4.11;100.00
53619;BME280;39505;53.040;18.488;2023-01-31T00:25:18;100126.03;;;4.11;100.00
53619;BME280;39505;53.040;18.488;2023-01-31T00:25:32;100126.88;;;4.11;100.00
53619;BME280;39505;53.040;18.488;2023-01-31T00:25:45;100124.22;;;4.11;100.00
53619;BME280;39505;53.040;18.488;2023-01-31T00:26:06;100127.75;;;4.12;100.00
53619;BME280;39505;53.040;18.488;2023-01-31T00:26:21;100121.56;;;4.11;100.00
53619;BME280;39505;53.040;18.488;2023-01-31T00:26:34;100125.09;;;4.12;100.00
53619;BME280;39505;53.040;18.488;2023-01-31T00:26:47;100123.28;;;4.12;100.00
53619;BME280;39505;53.040;18.488;2023-01-31T00:27:01;100119.78;;;4.12;100.00
53619;BME280;39505;53.040;18.488;2023-01-31T00:27:14;100121.47;;;4.13;100.00
53619;BME280;39505;53.040;18.488;2023-01-31T00:27:27;100125.84;;;4.14;100.00
53619;BME280;39505;53.040;18.488;2023-01-31T00:27:41;100123.28;;;4.12;100.00
53619;BME280;39505;53.040;18.488;2023-01-31T00:27:53;100127.63;;;4.13;100.00
53619;BME280;39505;53.040;18.488;2023-01-31T00:28:06;100125.94;;;4.12;100.00
53619;BME280;39505;53.040;18.488;2023-01-31T00:28:19;100127.63;;;4.13;100.00
53619;BME280;39505;53.040;18.488;2023-01-31T00:28:31;100129.34;;;4.14;100.00
53619;BME280;39505;53.040;18.488;2023-01-31T00:28:45;100123.19;;;4.14;100.00
53619;BME280;39505;53.040;18.488;2023-01-31T00:29:00;100124.03;;;4.14;100.00
53619;BME280;39505;53.040;18.488;2023-01-31T00:29:13;100123.19;;;4.14;100.00
53619;BME280;39505;53.040;18.488;2023-01-31T00:29:26;100123.19;;;4.14;100.00
53619;BME280;39505;53.040;18.488;2023-01-31T00:29:38;100118.72;;;4.14;100.00
53619;BME280;39505;53.040;18.488;2023-01-31T00:29:51;100126.69;;;4.14;100.00
53619;BME280;39505;53.040;18.488;2023-01-31T00:30:05;100130.19;;;4.15;100.00
53619;BME280;39505;53.040;18.488;2023-01-31T00:30:18;100132.00;;;4.14;100.00
53619;BME280;39505;53.040;18.488;2023-01-31T00:30:32;100128.50;;;4.14;100.00
53619;BME280;39505;53.040;18.488;2023-01-31T00:30:44;100134.50;;;4.16;100.00
53619;BME280;39505;53.040;18.488;2023-01-31T00:30:57;100125.84;;;4.14;100.00
53619;BME280;39505;53.040;18.488;2023-01-31T00:31:10;100130.19;;;4.15;100.00
53619;BME280;39505;53.040;18.488;2023-01-31T00:31:25;100131.00;;;4.15;100.00
53619;BME280;39505;53.040;18.488;2023-01-31T00:31:39;100128.50;;;4.14;100.00
53619;BME280;39505;53.040;18.488;2023-01-31T00:31:52;100134.63;;;4.14;100.00
53619;BME280;39505;53.040;18.488;2023-01-31T00:32:05;100131.16;;;4.14;100.00
53619;BME280;39505;53.040;18.488;2023-01-31T00:32:18;100130.19;;;4.15;100.00
53619;BME280;39505;53.040;18.488;2023-01-31T00:32:31;100122.31;;;4.13;100.00
53619;BME280;39505;53.040;18.488;2023-01-31T00:32:44;100130.19;;;4.15;100.00
53619;BME280;39505;53.040;18.488;2023-01-31T00:32:56;100134.63;;;4.14;100.00
53619;BME280;39505;53.040;18.488;2023-01-31T00:33:09;100135.38;;;4.16;100.00
53619;BME280;39505;53.040;18.488;2023-01-31T00:33:21;100132.72;;;4.16;100.00
53619;BME280;39505;53.040;18.488;2023-01-31T00:33:36;100124.88;;;4.15;100.00
53619;BME280;39505;53.040;18.488;2023-01-31T00:33:51;100132.72;;;4.16;100.00
53619;BME280;39505;53.040;18.488;2023-01-31T00:34:04;100130.09;;;4.16;100.00
53619;BME280;39505;53.040;18.488;2023-01-31T00:34:17;100126.56;;;4.16;100.00
53619;BME280;39505;53.040;18.488;2023-01-31T00:34:29;100131.84;;;4.16;100.00
53619;BME280;39505;53.040;18.488;2023-01-31T00:34:42;100138.03;;;4.16;100.00
53619;BME280;39505;53.040;18.488;2023-01-31T00:34:55;100135.38;;;4.16;100.00
53619;BME280;39505;53.040;18.488;2023-01-31T00:35:09;100135.38;;;4.16;100.00
53619;BME280;39505;53.040;18.488;2023-01-31T00:35:21;100136.13;;;4.18;100.00
53619;BME280;39505;53.040;18.488;2023-01-31T00:35:37;100130.09;;;4.16;100.00
53619;BME280;39505;53.040;18.488;2023-01-31T00:35:50;100132.72;;;4.16;100.00
53619;BME280;39505;53.040;18.488;2023-01-31T00:36:03;100140.69;;;4.16;100.00
53619;BME280;39505;53.040;18.488;2023-01-31T00:36:19;100127.53;;;4.15;100.00
53619;BME280;39505;53.040;18.488;2023-01-31T00:36:34;100136.13;;;4.18;100.00
53619;BME280;39505;53.040;18.488;2023-01-31T00:36:48;100133.47;;;4.18;100.00
53619;BME280;39505;53.040;18.488;2023-01-31T00:37:00;100141.53;;;4.17;100.00
53619;BME280;39505;53.040;18.488;2023-01-31T00:37:13;100137.06;;;4.17;100.00
53619;BME280;39505;53.040;18.488;2023-01-31T00:37:25;100125.72;;;4.15;100.00
53619;BME280;39505;53.040;18.488;2023-01-31T00:37:39;100144.19;;;4.17;100.00
53619;BME280;39505;53.040;18.488;2023-01-31T00:37:53;100145.88;;;4.18;100.00
53619;BME280;39505;53.040;18.488;2023-01-31T00:38:06;100139.72;;;4.17;100.00
53619;BME280;39505;53.040;18.488;2023-01-31T00:38:19;100133.56;;;4.17;100.00
53619;BME280;39505;53.040;18.488;2023-01-31T00:38:32;100138.97;;;4.15;100.00
53619;BME280;39505;53.040;18.488;2023-01-31T00:38:47;100137.06;;;4.17;100.00
53619;BME280;39505;53.040;18.488;2023-01-31T00:39:02;100146.00;;;4.16;100.00
53619;BME280;39505;53.040;18.488;2023-01-31T00:39:15;100143.34;;;4.16;100.00
53619;BME280;39505;53.040;18.488;2023-01-31T00:39:29;100137.28;;;4.14;100.00
53619;BME280;39505;53.040;18.488;2023-01-31T00:39:41;100142.59;;;4.14;100.00
53619;BME280;39505;53.040;18.488;2023-01-31T00:39:54;100135.59;;;4.13;100.00
53619;BME280;39505;53.040;18.488;2023-01-31T00:40:08;100137.28;;;4.14;100.00
53619;BME280;39505;53.040;18.488;2023-01-31T00:40:21;100145.25;;;4.14;100.00
53619;BME280;39505;53.040;18.488;2023-01-31T00:40:33;100139.19;;;4.12;100.00
53619;BME280;39505;53.040;18.488;2023-01-31T00:40:51;100145.34;;;4.13;100.00
53619;BME280;39505;53.040;18.488;2023-01-31T00:41:04;100142.69;;;4.13;100.00
53619;BME280;39505;53.040;18.488;2023-01-31T00:41:17;100142.69;;;4.13;100.00
53619;BME280;39505;53.040;18.488;2023-01-31T00:41:30;100139.19;;;4.12;100.00
53619;BME280;39505;53.040;18.488;2023-01-31T00:41:43;100135.72;;;4.12;100.00
53619;BME280;39505;53.040;18.488;2023-01-31T00:41:56;100144.50;;;4.12;100.00
53619;BME280;39505;53.040;18.488;2023-01-31T00:42:08;100146.31;;;4.12;100.00
53619;BME280;39505;53.040;18.488;2023-01-31T00:42:22;100145.44;;;4.11;100.00
53619;BME280;39505;53.040;18.488;2023-01-31T00:42:35;100142.78;;;4.11;100.00
53619;BME280;39505;53.040;18.488;2023-01-31T00:42:48;100147.16;;;4.12;100.00
53619;BME280;39505;53.040;18.488;2023-01-31T00:43:00;100139.19;;;4.12;100.00
53619;BME280;39505;53.040;18.488;2023-01-31T00:43:13;100139.31;;;4.11;100.00
53619;BME280;39505;53.040;18.488;2023-01-31T00:43:26;100147.16;;;4.12;100.00
53619;BME280;39505;53.040;18.488;2023-01-31T00:43:38;100146.31;;;4.12;100.00
53619;BME280;39505;53.040;18.488;2023-01-31T00:43:52;100138.56;;;4.08;100.00
53619;BME280;39505;53.040;18.488;2023-01-31T00:44:05;100143.75;;;4.10;100.00
53619;BME280;39505;53.040;18.488;2023-01-31T00:44:18;100147.34;;;4.09;100.00
53619;BME280;39505;53.040;18.488;2023-01-31T00:44:30;100146.41;;;4.10;100.00
53619;BME280;39505;53.040;18.488;2023-01-31T00:44:43;100143.75;;;4.10;100.00
53619;BME280;39505;53.040;18.488;2023-01-31T00:44:56;100147.25;;;4.11;100.00
53619;BME280;39505;53.040;18.488;2023-01-31T00:45:09;100145.44;;;4.11;100.00
53619;BME280;39505;53.040;18.488;2023-01-31T00:45:23;100149.06;;;4.10;100.00
53619;BME280;39505;53.040;18.488;2023-01-31T00:45:36;100149.91;;;4.11;100.00
53619;BME280;39505;53.040;18.488;2023-01-31T00:45:48;100153.41;;;4.11;100.00
53619;BME280;39505;53.040;18.488;2023-01-31T00:46:01;100146.41;;;4.10;100.00
53619;BME280;39505;53.040;18.488;2023-01-31T00:46:15;100150.75;;;4.11;100.00
53619;BME280;39505;53.040;18.488;2023-01-31T00:46:28;100151.63;;;4.12;100.00
53619;BME280;39505;53.040;18.488;2023-01-31T00:46:41;100150.75;;;4.11;100.00
53619;BME280;39505;53.040;18.488;2023-01-31T00:46:54;100154.28;;;4.12;100.00
53619;BME280;39505;53.040;18.488;2023-01-31T00:47:07;100152.47;;;4.12;100.00
53619;BME280;39505;53.040;18.488;2023-01-31T00:47:19;100146.31;;;4.12;100.00
53619;BME280;39505;53.040;18.488;2023-01-31T00:47:32;100148.09;;;4.11;100.00
53619;BME280;39505;53.040;18.488;2023-01-31T00:47:45;100147.16;;;4.12;100.00
53619;BME280;39505;53.040;18.488;2023-01-31T00:47:57;100151.63;;;4.12;100.00
53619;BME280;39505;53.040;18.488;2023-01-31T00:48:10;100156.06;;;4.11;100.00
53619;BME280;39505;53.040;18.488;2023-01-31T00:48:23;100154.38;;;4.10;100.00
53619;BME280;39505;53.040;18.488;2023-01-31T00:48:36;100150.88;;;4.09;100.00
53619;BME280;39505;53.040;18.488;2023-01-31T00:48:49;100155.31;;;4.09;100.00
53619;BME280;39505;53.040;18.488;2023-01-31T00:49:03;100157.88;;;4.11;100.00
53619;BME280;39505;53.040;18.488;2023-01-31T00:49:16;100159.69;;;4.10;100.00
53619;BME280;39505;53.040;18.488;2023-01-31T00:49:28;100152.66;;;4.09;100.00
53619;BME280;39505;53.040;18.488;2023-01-31T00:49:41;100157.03;;;4.10;100.00
53619;BME280;39505;53.040;18.488;2023-01-31T00:49:55;100154.38;;;4.10;100.00
53619;BME280;39505;53.040;18.488;2023-01-31T00:50:12;100156.19;;;4.09;100.00
53619;BME280;39505;53.040;18.488;2023-01-31T00:50:25;100162.25;;;4.12;100.00
53619;BME280;39505;53.040;18.488;2023-01-31T00:50:39;100148.22;;;4.09;100.00
53619;BME280;39505;53.040;18.488;2023-01-31T00:50:52;100146.41;;;4.10;100.00
53619;BME280;39505;53.040;18.488;2023-01-31T00:51:05;100157.78;;;4.12;100.00
53619;BME280;39505;53.040;18.488;2023-01-31T00:51:19;100154.38;;;4.10;100.00
53619;BME280;39505;53.040;18.488;2023-01-31T00:51:32;100160.53;;;4.11;100.00
53619;BME280;39505;53.040;18.488;2023-01-31T00:51:46;100154.38;;;4.10;100.00
53619;BME280;39505;53.040;18.488;2023-01-31T00:51:58;100157.03;;;4.10;100.00
53619;BME280;39505;53.040;18.488;2023-01-31T00:52:11;100159.69;;;4.10;100.00
53619;BME280;39505;53.040;18.488;2023-01-31T00:52:24;100156.06;;;4.11;100.00
53619;BME280;39505;53.040;18.488;2023-01-31T00:52:36;100153.41;;;4.11;100.00
53619;BME280;39505;53.040;18.488;2023-01-31T00:52:51;100161.38;;;4.11;100.00
53619;BME280;39505;53.040;18.488;2023-01-31T00:53:04;100162.25;;;4.12;100.00
53619;BME280;39505;53.040;18.488;2023-01-31T00:53:17;100164.16;;;4.09;100.00
53619;BME280;39505;53.040;18.488;2023-01-31T00:53:36;100156.19;;;4.09;100.00
53619;BME280;39505;53.040;18.488;2023-01-31T00:53:49;100153.53;;;4.09;100.00
53619;BME280;39505;53.040;18.488;2023-01-31T00:54:02;100159.69;;;4.10;100.00
53619;BME280;39505;53.040;18.488;2023-01-31T00:54:16;100157.97;;;4.09;100.00
53619;BME280;39505;53.040;18.488;2023-01-31T00:54:29;100157.03;;;4.10;100.00
53619;BME280;39505;53.040;18.488;2023-01-31T00:54:41;100160.63;;;4.09;100.00
53619;BME280;39505;53.040;18.488;2023-01-31T00:54:54;100160.63;;;4.09;100.00
53619;BME280;39505;53.040;18.488;2023-01-31T00:55:07;100149.06;;;4.10;100.00
53619;BME280;39505;53.040;18.488;2023-01-31T00:55:20;100157.97;;;4.09;100.00
53619;BME280;39505;53.040;18.488;2023-01-31T00:55:34;100157.97;;;4.09;100.00
53619;BME280;39505;53.040;18.488;2023-01-31T00:55:48;100162.44;;;4.08;100.00
53619;BME280;39505;53.040;18.488;2023-01-31T00:56:03;100157.97;;;4.09;100.00
53619;BME280;39505;53.040;18.488;2023-01-31T00:56:17;100164.16;;;4.09;100.00
53619;BME280;39505;53.040;18.488;2023-01-31T00:56:30;100156.28;;;4.08;100.00
53619;BME280;39505;53.040;18.488;2023-01-31T00:56:43;100157.97;;;4.09;100.00
53619;BME280;39505;53.040;18.488;2023-01-31T00:56:56;100160.75;;;4.07;100.00
53619;BME280;39505;53.040;18.488;2023-01-31T00:57:09;100159.78;;;4.08;100.00
53619;BME280;39505;53.040;18.488;2023-01-31T00:57:22;100158.19;;;4.06;100.00
53619;BME280;39505;53.040;18.488;2023-01-31T00:57:35;100161.59;;;4.08;100.00
53619;BME280;39505;53.040;18.488;2023-01-31T00:57:48;100162.44;;;4.08;100.00
53619;BME280;39505;53.040;18.488;2023-01-31T00:58:00;100157.97;;;4.09;100.00
53619;BME280;39505;53.040;18.488;2023-01-31T00:58:13;100153.63;;;4.08;100.00
53619;BME280;39505;53.040;18.488;2023-01-31T00:58:26;100161.69;;;4.06;100.00
53619;BME280;39505;53.040;18.488;2023-01-31T00:58:38;100156.28;;;4.08;100.00
53619;BME280;39505;53.040;18.488;2023-01-31T00:58:52;100161.59;;;4.08;100.00
53619;BME280;39505;53.040;18.488;2023-01-31T00:59:05;100160.63;;;4.09;100.00
53619;BME280;39505;53.040;18.488;2023-01-31T00:59:19;100158.94;;;4.08;100.00
53619;BME280;39505;53.040;18.488;2023-01-31T00:59:32;100166.06;;;4.07;100.00
53619;BME280;39505;53.040;18.488;2023-01-31T00:59:45;100166.91;;;4.08;100.00
53619;BME280;39505;53.040;18.488;2023-01-31T00:59:58;100164.25;;;4.08;100.00
53619;BME280;39505;53.040;18.488;2023-01-31T01:00:12;100166.91;;;4.08;100.00
53619;BME280;39505;53.040;18.488;2023-01-31T01:00:26;100161.59;;;4.08;100.00
53619;BME280;39505;53.040;18.488;2023-01-31T01:00:38;100162.44;;;4.08;100.00
53619;BME280;39505;53.040;18.488;2023-01-31T01:00:51;100162.44;;;4.08;100.00
53619;BME280;39505;53.040;18.488;2023-01-31T01:01:05;100164.16;;;4.09;100.00
53619;BME280;39505;53.040;18.488;2023-01-31T01:01:20;100165.91;;;4.09;100.00
53619;BME280;39505;53.040;18.488;2023-01-31T01:01:34;100166.91;;;4.08;100.00
53619;BME280;39505;53.040;18.488;2023-01-31T01:01:49;100170.38;;;4.08;100.00
53619;BME280;39505;53.040;18.488;2023-01-31T01:02:02;100164.16;;;4.09;100.00
53619;BME280;39505;53.040;18.488;2023-01-31T01:02:14;100170.28;;;4.10;100.00
53619;BME280;39505;53.040;18.488;2023-01-31T01:02:27;100166.66;;;4.11;100.00
53619;BME280;39505;53.040;18.488;2023-01-31T01:02:40;100165.00;;;4.10;100.00
53619;BME280;39505;53.040;18.488;2023-01-31T01:02:52;100169.44;;;4.09;100.00
53619;BME280;39505;53.040;18.488;2023-01-31T01:03:07;100168.56;;;4.09;100.00
53619;BME280;39505;53.040;18.488;2023-01-31T01:03:19;100164.16;;;4.09;100.00
53619;BME280;39505;53.040;18.488;2023-01-31T01:03:32;100168.56;;;4.09;100.00
53619;BME280;39505;53.040;18.488;2023-01-31T01:03:46;100163.28;;;4.09;100.00
53619;BME280;39505;53.040;18.488;2023-01-31T01:03:58;100168.56;;;4.09;100.00
53619;BME280;39505;53.040;18.488;2023-01-31T01:04:11;100170.28;;;4.10;100.00
53619;BME280;39505;53.040;18.488;2023-01-31T01:04:25;100168.47;;;4.11;100.00
53619;BME280;39505;53.040;18.488;2023-01-31T01:04:37;100171.97;;;4.11;100.00
53619;BME280;39505;53.040;18.488;2023-01-31T01:04:50;100170.28;;;4.10;100.00
53619;BME280;39505;53.040;18.488;2023-01-31T01:05:04;100164.16;;;4.09;100.00
53619;BME280;39505;53.040;18.488;2023-01-31T01:05:17;100171.97;;;4.11;100.00
53619;BME280;39505;53.040;18.488;2023-01-31T01:05:30;100172.84;;;4.12;100.00
53619;BME280;39505;53.040;18.488;2023-01-31T01:05:43;100163.06;;;4.12;100.00
53619;BME280;39505;53.040;18.488;2023-01-31T01:05:55;100166.66;;;4.11;100.00
53619;BME280;39505;53.040;18.488;2023-01-31T01:06:08;100174.63;;;4.11;100.00
53619;BME280;39505;53.040;18.488;2023-01-31T01:06:23;100170.19;;;4.12;100.00
53619;BME280;39505;53.040;18.488;2023-01-31T01:06:37;100173.69;;;4.12;100.00
53619;BME280;39505;53.040;18.488;2023-01-31T01:06:50;100174.63;;;4.11;100.00
53619;BME280;39505;53.040;18.488;2023-01-31T01:07:02;100174.63;;;4.11;100.00
53619;BME280;39505;53.040;18.488;2023-01-31T01:07:15;100177.19;;;4.13;100.00
53619;BME280;39505;53.040;18.488;2023-01-31T01:07:29;100170.28;;;4.10;100.00
53619;BME280;39505;53.040;18.488;2023-01-31T01:07:42;100171.03;;;4.12;100.00
53619;BME280;39505;53.040;18.488;2023-01-31T01:07:56;100173.69;;;4.12;100.00
53619;BME280;39505;53.040;18.488;2023-01-31T01:08:08;100180.69;;;4.13;100.00
53619;BME280;39505;53.040;18.488;2023-01-31T01:08:21;100180.69;;;4.13;100.00
53619;BME280;39505;53.040;18.488;2023-01-31T01:08:34;100185.03;;;4.14;100.00
53619;BME280;39505;53.040;18.488;2023-01-31T01:08:48;100175.38;;;4.13;100.00
53619;BME280;39505;53.040;18.488;2023-01-31T01:09:02;100184.19;;;4.14;100.00
53619;BME280;39505;53.040;18.488;2023-01-31T01:09:14;100185.88;;;4.15;100.00